createdAt,value
2023-03-30T06:45:37.253Z,8.33
2023-03-30T06:48:39.847Z,8.48
2023-03-30T06:51:42.356Z,8.65
2023-03-30T06:54:44.840Z,8.79
2023-03-30T06:57:47.522Z,8.89
2023-03-30T07:00:51.652Z,9.15
2023-03-30T07:03:54.322Z,9.48
2023-03-30T07:06:57.839Z,9.52
2023-03-30T07:10:00.579Z,9.65
2023-03-30T07:13:03.122Z,9.99
2023-03-30T07:16:07.975Z,10.07
2023-03-30T07:19:10.496Z,10.22
2023-03-30T07:22:13.007Z,9.95
2023-03-30T07:25:15.605Z,9.89
2023-03-30T07:28:18.493Z,9.72
2023-03-30T07:31:22.342Z,9.60
2023-03-30T07:37:39.123Z,9.42
2023-03-30T07:40:42.097Z,9.39
2023-03-30T07:43:45.176Z,9.41
2023-03-30T07:46:47.820Z,9.55
2023-03-30T07:49:51.098Z,9.70
2023-03-30T07:52:55.122Z,9.59
2023-03-30T07:55:57.723Z,9.66
2023-03-30T07:59:01.778Z,9.69
2023-03-30T08:02:05.621Z,9.84
2023-03-30T08:05:09.505Z,9.88
2023-03-30T08:08:13.832Z,9.94
2023-03-30T08:11:16.510Z,10.01
2023-03-30T08:14:19.090Z,10.09
2023-03-30T08:17:21.573Z,10.20
2023-03-30T08:20:24.215Z,10.36
2023-03-30T08:23:28.256Z,10.58
2023-03-30T08:26:30.894Z,10.67
2023-03-30T08:29:33.773Z,11.03
2023-03-30T08:32:36.338Z,12.02
2023-03-30T08:35:39.398Z,12.22
2023-03-30T08:38:46.107Z,12.69
2023-03-30T08:42:08.216Z,12.42
2023-03-30T08:45:12.780Z,12.37
2023-03-30T08:48:19.782Z,11.93
2023-03-30T08:51:24.855Z,11.89
2023-03-30T08:54:30.652Z,11.97
2023-03-30T08:57:48.393Z,12.11
2023-03-30T09:00:56.702Z,12.51
2023-03-30T09:04:08.741Z,13.12
2023-03-30T09:07:18.127Z,13.79
2023-03-30T09:10:23.951Z,13.98
2023-03-30T09:13:30.989Z,13.76
2023-03-30T09:16:38.614Z,13.55
2023-03-30T09:19:50.161Z,13.39
2023-03-30T09:22:54.480Z,13.34
2023-03-30T09:26:07.419Z,13.43
2023-03-30T09:29:15.264Z,13.48
2023-03-30T09:32:25.031Z,13.71
2023-03-30T09:35:36.330Z,14.25
2023-03-30T09:38:42.033Z,14.39
2023-03-30T09:42:09.085Z,14.59
2023-03-30T09:45:18.069Z,14.69
2023-03-30T09:48:21.291Z,14.70
2023-03-30T09:51:25.606Z,15.07
2023-03-30T09:54:35.719Z,15.21
2023-03-30T09:57:39.555Z,15.37
2023-03-30T10:00:42.089Z,15.57
2023-03-30T10:03:46.204Z,15.63
2023-03-30T10:06:50.794Z,16.06
2023-03-30T10:09:53.671Z,16.62
2023-03-30T10:13:04.623Z,16.65
2023-03-30T10:16:09.530Z,16.38
2023-03-30T10:19:19.205Z,16.78
2023-03-30T10:22:23.351Z,16.44
2023-03-30T10:25:29.672Z,16.01
2023-03-30T10:28:35.918Z,15.68
2023-03-30T10:31:40.602Z,15.67
2023-03-30T10:34:45.527Z,15.48
2023-03-30T10:37:49.068Z,15.37
2023-03-30T10:40:58.805Z,15.37
2023-03-30T10:44:16.401Z,15.44
2023-03-30T10:47:33.552Z,15.57
2023-03-30T10:50:46.246Z,15.69
2023-03-30T10:53:56.886Z,15.71
2023-03-30T10:57:07.897Z,15.78
2023-03-30T11:00:43.364Z,15.93
2023-03-30T11:03:51.171Z,16.12
2023-03-30T11:06:57.477Z,16.90
2023-03-30T11:10:07.059Z,17.83
2023-03-30T11:13:16.757Z,18.66
2023-03-30T11:16:24.432Z,19.23
2023-03-30T11:19:33.562Z,18.78
2023-03-30T11:22:39.367Z,18.74
2023-03-30T11:25:53.913Z,18.85
2023-03-30T11:29:03.974Z,18.92
2023-03-30T11:32:18.003Z,18.96
2023-03-30T11:35:31.228Z,19.13
2023-03-30T11:38:42.516Z,19.06
2023-03-30T11:41:49.498Z,18.75
2023-03-30T11:44:52.604Z,18.71
2023-03-30T11:48:10.165Z,18.69
2023-03-30T11:51:29.828Z,18.24
2023-03-30T11:55:03.630Z,18.21
2023-03-30T11:58:18.370Z,17.82
2023-03-30T12:01:31.789Z,17.61
2023-03-30T12:04:45.929Z,17.41
2023-03-30T12:07:58.707Z,17.63
2023-03-30T12:11:06.800Z,18.35
2023-03-30T12:14:28.409Z,18.90
2023-03-30T12:17:45.356Z,18.51
2023-03-30T12:20:54.296Z,18.29
2023-03-30T12:24:05.016Z,17.95
2023-03-30T12:27:11.789Z,17.90
2023-03-30T12:30:24.564Z,18.15
2023-03-30T12:33:29.182Z,18.59
2023-03-30T12:36:38.145Z,18.07
2023-03-30T12:39:48.845Z,17.96
2023-03-30T12:43:01.685Z,18.01
2023-03-30T12:46:14.117Z,18.35
2023-03-30T12:49:27.056Z,18.24
2023-03-30T12:52:43.109Z,18.80
2023-03-30T12:55:47.990Z,18.66
2023-03-30T12:59:10.171Z,18.37
2023-03-30T13:02:39.798Z,18.07
2023-03-30T13:05:44.980Z,17.92
2023-03-30T13:08:54.226Z,17.74
2023-03-30T13:12:28.768Z,17.97
2023-03-30T13:15:35.814Z,18.21
2023-03-30T13:18:54.025Z,18.01
2023-03-30T13:21:58.621Z,17.40
2023-03-30T13:25:24.059Z,17.18
2023-03-30T13:28:48.746Z,17.21
2023-03-30T13:32:16.801Z,17.16
2023-03-30T13:35:46.189Z,17.20
2023-03-30T13:39:09.738Z,17.02
2023-03-30T13:42:27.056Z,15.49
2023-03-30T13:45:40.204Z,14.76
2023-03-30T13:48:56.619Z,13.07
2023-03-30T13:52:04.226Z,11.71
2023-03-30T13:55:16.067Z,11.60
2023-03-30T13:58:22.708Z,11.62
2023-03-30T14:01:25.664Z,11.65
2023-03-30T14:04:30.917Z,11.75
2023-03-30T14:07:43.374Z,11.81
2023-03-30T14:10:48.244Z,11.78
2023-03-30T14:13:53.899Z,11.74
2023-03-30T14:16:57.421Z,11.72
2023-03-30T14:20:13.942Z,11.70
2023-03-30T14:23:20.391Z,11.71
2023-03-30T14:26:26.316Z,11.72
2023-03-30T14:29:32.022Z,11.72
2023-03-30T14:32:34.544Z,11.77
2023-03-30T14:35:41.919Z,11.75
2023-03-30T14:38:47.878Z,11.71
2023-03-30T14:41:51.167Z,11.68
2023-03-30T14:44:57.707Z,11.63
2023-03-30T14:48:00.385Z,11.64
2023-03-30T14:51:03.582Z,11.66
2023-03-30T14:54:07.566Z,11.65
2023-03-30T14:57:12.141Z,11.61
2023-03-30T15:00:20.402Z,11.63
2023-03-30T15:03:33.337Z,11.60
2023-03-30T15:06:37.742Z,11.53
2023-03-30T15:09:40.166Z,11.51
2023-03-30T15:12:45.485Z,11.48
2023-03-30T15:15:51.244Z,11.47
2023-03-30T15:18:58.377Z,11.47
2023-03-30T15:22:03.520Z,11.39
2023-03-30T15:25:09.020Z,11.37
2023-03-30T15:28:18.979Z,11.33
2023-03-30T15:31:23.364Z,11.29
2023-03-30T15:34:25.897Z,11.32
2023-03-30T15:37:30.101Z,11.30
2023-03-30T15:40:35.890Z,11.29
2023-03-30T15:43:52.679Z,11.31
2023-03-30T15:46:58.652Z,11.39
2023-03-30T15:50:01.436Z,11.57
2023-03-30T15:53:05.969Z,11.60
2023-03-30T15:56:13.919Z,11.65
2023-03-30T15:59:19.993Z,11.63
2023-03-30T16:02:25.542Z,11.67
2023-03-30T16:05:30.501Z,11.63
2023-03-30T16:08:33.091Z,11.50
2023-03-30T16:11:36.249Z,11.38
2023-03-30T16:14:38.817Z,11.32
2023-03-30T16:17:42.642Z,11.32
2023-03-30T16:20:45.092Z,11.34
2023-03-30T16:23:47.494Z,11.34
2023-03-30T16:26:49.956Z,11.38
2023-03-30T16:29:52.378Z,11.35
2023-03-30T16:32:56.158Z,11.34
2023-03-30T16:35:58.653Z,11.37
2023-03-30T16:44:15.386Z,11.30
2023-03-30T16:47:20.268Z,11.36
2023-03-30T16:50:24.957Z,11.44
2023-03-30T16:53:27.369Z,11.55
2023-03-30T16:56:30.107Z,11.60
2023-03-30T16:59:34.145Z,11.50
2023-03-30T17:02:36.595Z,11.40
2023-03-30T17:05:39.758Z,11.35
2023-03-30T17:08:43.028Z,11.30
